sensor_id;sensor_type;location;lat;lon;timestamp;temperature;humidity
12303;DHT22;6214;48.012;7.862;2023-07-31T00:01:18;18.10;99.90
12303;DHT22;6214;48.012;7.862;2023-07-31T00:03:46;18.10;99.90
12303;DHT22;6214;48.012;7.862;2023-07-31T00:06:13;18.00;99.90
12303;DHT22;6214;48.012;7.862;2023-07-31T00:08:40;18.00;99.90
12303;DHT22;6214;48.012;7.862;2023-07-31T00:11:07;18.00;99.90
12303;DHT22;6214;48.012;7.862;2023-07-31T00:13:34;18.00;99.90
12303;DHT22;6214;48.012;7.862;2023-07-31T00:16:02;17.80;99.90
12303;DHT22;6214;48.012;7.862;2023-07-31T00:18:29;17.70;99.90
12303;DHT22;6214;48.012;7.862;2023-07-31T00:20:55;17.60;99.90
12303;DHT22;6214;48.012;7.862;2023-07-31T00:23:22;17.50;99.90
12303;DHT22;6214;48.012;7.862;2023-07-31T00:25:49;17.40;99.90
12303;DHT22;6214;48.012;7.862;2023-07-31T00:28:16;17.30;99.90
12303;DHT22;6214;48.012;7.862;2023-07-31T00:30:43;17.30;99.90
12303;DHT22;6214;48.012;7.862;2023-07-31T00:33:10;17.20;99.90
12303;DHT22;6214;48.012;7.862;2023-07-31T00:35:37;17.20;99.90
12303;DHT22;6214;48.012;7.862;2023-07-31T00:38:04;17.30;99.90
12303;DHT22;6214;48.012;7.862;2023-07-31T00:40:35;17.30;99.90
12303;DHT22;6214;48.012;7.862;2023-07-31T00:43:03;17.30;99.90
12303;DHT22;6214;48.012;7.862;2023-07-31T00:45:31;17.30;99.90
12303;DHT22;6214;48.012;7.862;2023-07-31T00:47:58;17.30;99.90
12303;DHT22;6214;48.012;7.862;2023-07-31T00:50:26;17.20;99.90
12303;DHT22;6214;48.012;7.862;2023-07-31T00:52:54;17.00;99.90
12303;DHT22;6214;48.012;7.862;2023-07-31T00:55:22;16.90;99.90
12303;DHT22;6214;48.012;7.862;2023-07-31T00:57:49;16.90;99.90
12303;DHT22;6214;48.012;7.862;2023-07-31T01:00:19;16.80;99.90
12303;DHT22;6214;48.012;7.862;2023-07-31T01:02:46;16.80;99.90
12303;DHT22;6214;48.012;7.862;2023-07-31T01:05:13;16.70;99.90
12303;DHT22;6214;48.012;7.862;2023-07-31T01:07:59;16.60;99.90
12303;DHT22;6214;48.012;7.862;2023-07-31T01:10:37;16.40;99.90
12303;DHT22;6214;48.012;7.862;2023-07-31T01:13:08;16.40;99.90
12303;DHT22;6214;48.012;7.862;2023-07-31T01:15:36;16.40;99.90
12303;DHT22;6214;48.012;7.862;2023-07-31T01:18:03;16.50;99.90
12303;DHT22;6214;48.012;7.862;2023-07-31T01:20:30;16.30;99.90
12303;DHT22;6214;48.012;7.862;2023-07-31T01:26:03;16.50;99.90
12303;DHT22;6214;48.012;7.862;2023-07-31T01:28:42;16.40;99.90
12303;DHT22;6214;48.012;7.862;2023-07-31T01:31:17;16.30;99.90
12303;DHT22;6214;48.012;7.862;2023-07-31T01:33:45;16.20;99.90
12303;DHT22;6214;48.012;7.862;2023-07-31T01:36:12;16.00;99.90
12303;DHT22;6214;48.012;7.862;2023-07-31T01:38:39;16.10;99.90
12303;DHT22;6214;48.012;7.862;2023-07-31T01:41:06;16.10;99.90
12303;DHT22;6214;48.012;7.862;2023-07-31T01:43:33;16.00;99.90
12303;DHT22;6214;48.012;7.862;2023-07-31T01:46:00;16.00;99.90
12303;DHT22;6214;48.012;7.862;2023-07-31T01:48:27;16.00;99.90
12303;DHT22;6214;48.012;7.862;2023-07-31T01:50:54;15.90;99.90
12303;DHT22;6214;48.012;7.862;2023-07-31T01:53:21;15.90;99.90
12303;DHT22;6214;48.012;7.862;2023-07-31T01:55:48;15.80;99.90
12303;DHT22;6214;48.012;7.862;2023-07-31T01:58:15;15.70;99.90
12303;DHT22;6214;48.012;7.862;2023-07-31T02:00:42;15.70;99.90
12303;DHT22;6214;48.012;7.862;2023-07-31T02:03:09;15.60;99.90
12303;DHT22;6214;48.012;7.862;2023-07-31T02:05:36;15.50;99.90
12303;DHT22;6214;48.012;7.862;2023-07-31T02:08:03;15.50;99.90
12303;DHT22;6214;48.012;7.862;2023-07-31T02:10:32;15.40;99.90
12303;DHT22;6214;48.012;7.862;2023-07-31T02:12:59;15.50;99.90
12303;DHT22;6214;48.012;7.862;2023-07-31T02:15:26;15.50;99.90
12303;DHT22;6214;48.012;7.862;2023-07-31T02:17:53;15.50;99.90
12303;DHT22;6214;48.012;7.862;2023-07-31T02:20:20;15.50;99.90
12303;DHT22;6214;48.012;7.862;2023-07-31T02:22:47;15.60;99.90
12303;DHT22;6214;48.012;7.862;2023-07-31T02:25:14;15.60;99.90
12303;DHT22;6214;48.012;7.862;2023-07-31T02:27:41;15.60;99.90
12303;DHT22;6214;48.012;7.862;2023-07-31T02:30:09;15.40;99.90
12303;DHT22;6214;48.012;7.862;2023-07-31T02:32:36;15.50;99.90
12303;DHT22;6214;48.012;7.862;2023-07-31T02:35:03;15.50;99.90
12303;DHT22;6214;48.012;7.862;2023-07-31T02:37:30;15.50;99.90
12303;DHT22;6214;48.012;7.862;2023-07-31T02:39:57;15.60;99.90
12303;DHT22;6214;48.012;7.862;2023-07-31T02:42:24;15.50;99.90
12303;DHT22;6214;48.012;7.862;2023-07-31T02:44:51;15.50;99.90
12303;DHT22;6214;48.012;7.862;2023-07-31T02:47:22;15.60;99.90
12303;DHT22;6214;48.012;7.862;2023-07-31T02:49:49;15.70;99.90
12303;DHT22;6214;48.012;7.862;2023-07-31T02:52:16;15.90;99.90
12303;DHT22;6214;48.012;7.862;2023-07-31T02:54:43;16.10;99.90
12303;DHT22;6214;48.012;7.862;2023-07-31T02:57:11;16.20;99.90
12303;DHT22;6214;48.012;7.862;2023-07-31T02:59:38;16.40;99.90
12303;DHT22;6214;48.012;7.862;2023-07-31T03:02:05;16.60;99.90
12303;DHT22;6214;48.012;7.862;2023-07-31T03:04:32;16.50;99.90
12303;DHT22;6214;48.012;7.862;2023-07-31T03:06:59;16.50;99.90
12303;DHT22;6214;48.012;7.862;2023-07-31T03:09:26;16.50;99.90
12303;DHT22;6214;48.012;7.862;2023-07-31T03:11:53;16.50;99.90
12303;DHT22;6214;48.012;7.862;2023-07-31T03:14:20;16.60;99.90
12303;DHT22;6214;48.012;7.862;2023-07-31T03:16:47;16.60;99.90
12303;DHT22;6214;48.012;7.862;2023-07-31T03:19:15;16.80;99.90
12303;DHT22;6214;48.012;7.862;2023-07-31T03:21:41;16.80;99.90
12303;DHT22;6214;48.012;7.862;2023-07-31T03:24:08;16.90;99.90
12303;DHT22;6214;48.012;7.862;2023-07-31T03:26:35;17.00;99.90
12303;DHT22;6214;48.012;7.862;2023-07-31T03:29:04;16.90;99.90
12303;DHT22;6214;48.012;7.862;2023-07-31T03:31:31;17.10;99.90
12303;DHT22;6214;48.012;7.862;2023-07-31T03:33:58;17.10;99.90
12303;DHT22;6214;48.012;7.862;2023-07-31T03:36:25;17.20;99.90
12303;DHT22;6214;48.012;7.862;2023-07-31T03:38:52;17.20;99.90
12303;DHT22;6214;48.012;7.862;2023-07-31T03:41:19;17.10;99.90
12303;DHT22;6214;48.012;7.862;2023-07-31T03:43:50;17.10;99.90
12303;DHT22;6214;48.012;7.862;2023-07-31T03:46:19;17.00;99.90
12303;DHT22;6214;48.012;7.862;2023-07-31T03:48:46;17.10;99.90
12303;DHT22;6214;48.012;7.862;2023-07-31T03:51:13;17.10;99.90
12303;DHT22;6214;48.012;7.862;2023-07-31T03:53:40;17.00;99.90
12303;DHT22;6214;48.012;7.862;2023-07-31T03:56:07;17.00;99.90
12303;DHT22;6214;48.012;7.862;2023-07-31T03:58:34;17.00;99.90
12303;DHT22;6214;48.012;7.862;2023-07-31T04:01:02;17.10;99.90
12303;DHT22;6214;48.012;7.862;2023-07-31T04:03:29;17.10;99.90
12303;DHT22;6214;48.012;7.862;2023-07-31T04:05:56;17.20;99.90
12303;DHT22;6214;48.012;7.862;2023-07-31T04:08:24;17.20;99.90
12303;DHT22;6214;48.012;7.862;2023-07-31T04:10:51;17.20;99.90
12303;DHT22;6214;48.012;7.862;2023-07-31T04:13:18;17.40;99.90
12303;DHT22;6214;48.012;7.862;2023-07-31T04:15:49;17.50;99.90
12303;DHT22;6214;48.012;7.862;2023-07-31T04:18:17;17.50;99.90
12303;DHT22;6214;48.012;7.862;2023-07-31T04:20:44;17.50;99.90
12303;DHT22;6214;48.012;7.862;2023-07-31T04:23:11;17.50;99.90
12303;DHT22;6214;48.012;7.862;2023-07-31T04:25:38;17.50;99.90
12303;DHT22;6214;48.012;7.862;2023-07-31T04:28:05;17.50;99.90
12303;DHT22;6214;48.012;7.862;2023-07-31T04:30:33;17.60;99.90
12303;DHT22;6214;48.012;7.862;2023-07-31T04:33:00;17.60;99.90
12303;DHT22;6214;48.012;7.862;2023-07-31T04:35:27;17.70;99.90
12303;DHT22;6214;48.012;7.862;2023-07-31T04:37:54;17.70;99.90
12303;DHT22;6214;48.012;7.862;2023-07-31T04:40:22;17.80;99.90
12303;DHT22;6214;48.012;7.862;2023-07-31T04:42:49;17.80;99.90
12303;DHT22;6214;48.012;7.862;2023-07-31T04:45:16;17.90;99.90
12303;DHT22;6214;48.012;7.862;2023-07-31T04:47:43;17.90;99.90
12303;DHT22;6214;48.012;7.862;2023-07-31T04:50:10;18.00;99.90
12303;DHT22;6214;48.012;7.862;2023-07-31T04:52:37;18.00;99.90
12303;DHT22;6214;48.012;7.862;2023-07-31T04:55:04;18.00;99.90
12303;DHT22;6214;48.012;7.862;2023-07-31T04:57:31;18.00;99.90
12303;DHT22;6214;48.012;7.862;2023-07-31T04:59:58;18.00;99.90
12303;DHT22;6214;48.012;7.862;2023-07-31T05:02:26;18.10;99.90
12303;DHT22;6214;48.012;7.862;2023-07-31T05:04:53;18.10;99.90
12303;DHT22;6214;48.012;7.862;2023-07-31T05:07:20;18.20;99.90
12303;DHT22;6214;48.012;7.862;2023-07-31T05:09:47;18.20;99.90
12303;DHT22;6214;48.012;7.862;2023-07-31T05:12:14;18.10;99.90
12303;DHT22;6214;48.012;7.862;2023-07-31T05:14:41;18.20;99.90
12303;DHT22;6214;48.012;7.862;2023-07-31T05:17:08;18.20;99.90
12303;DHT22;6214;48.012;7.862;2023-07-31T05:19:35;18.30;99.90
12303;DHT22;6214;48.012;7.862;2023-07-31T05:22:02;18.30;99.90
12303;DHT22;6214;48.012;7.862;2023-07-31T05:24:29;18.30;99.90
12303;DHT22;6214;48.012;7.862;2023-07-31T05:26:56;18.40;99.90
12303;DHT22;6214;48.012;7.862;2023-07-31T05:29:23;18.40;99.90
12303;DHT22;6214;48.012;7.862;2023-07-31T05:31:50;18.50;99.90
12303;DHT22;6214;48.012;7.862;2023-07-31T05:34:17;18.50;99.90
12303;DHT22;6214;48.012;7.862;2023-07-31T05:36:44;18.50;99.90
12303;DHT22;6214;48.012;7.862;2023-07-31T05:39:11;18.40;99.90
12303;DHT22;6214;48.012;7.862;2023-07-31T05:41:39;18.50;99.90
12303;DHT22;6214;48.012;7.862;2023-07-31T05:44:06;18.50;99.90
12303;DHT22;6214;48.012;7.862;2023-07-31T05:46:33;18.60;99.90
12303;DHT22;6214;48.012;7.862;2023-07-31T05:49:00;18.60;99.90
12303;DHT22;6214;48.012;7.862;2023-07-31T05:51:27;18.60;99.90
12303;DHT22;6214;48.012;7.862;2023-07-31T05:53:55;18.60;99.90
12303;DHT22;6214;48.012;7.862;2023-07-31T05:56:22;18.60;99.90
12303;DHT22;6214;48.012;7.862;2023-07-31T05:58:49;18.60;99.90
12303;DHT22;6214;48.012;7.862;2023-07-31T06:01:17;18.70;99.90
12303;DHT22;6214;48.012;7.862;2023-07-31T06:03:44;18.70;99.90
12303;DHT22;6214;48.012;7.862;2023-07-31T06:06:11;18.80;99.90
12303;DHT22;6214;48.012;7.862;2023-07-31T06:08:40;18.80;99.90
12303;DHT22;6214;48.012;7.862;2023-07-31T06:11:07;19.00;99.90
12303;DHT22;6214;48.012;7.862;2023-07-31T06:13:36;19.20;99.90
12303;DHT22;6214;48.012;7.862;2023-07-31T06:16:03;19.20;99.90
12303;DHT22;6214;48.012;7.862;2023-07-31T06:18:33;19.30;99.90
12303;DHT22;6214;48.012;7.862;2023-07-31T06:21:00;19.40;99.90
12303;DHT22;6214;48.012;7.862;2023-07-31T06:23:27;19.40;99.90
12303;DHT22;6214;48.012;7.862;2023-07-31T06:25:54;19.50;99.90
12303;DHT22;6214;48.012;7.862;2023-07-31T06:28:21;19.50;99.90
12303;DHT22;6214;48.012;7.862;2023-07-31T06:30:48;19.40;99.90
12303;DHT22;6214;48.012;7.862;2023-07-31T06:33:15;19.30;99.90
12303;DHT22;6214;48.012;7.862;2023-07-31T06:35:42;19.30;99.90
12303;DHT22;6214;48.012;7.862;2023-07-31T06:38:09;19.40;99.90
12303;DHT22;6214;48.012;7.862;2023-07-31T06:40:36;19.50;99.90
12303;DHT22;6214;48.012;7.862;2023-07-31T06:43:03;19.60;99.90
12303;DHT22;6214;48.012;7.862;2023-07-31T06:45:36;19.70;99.90
12303;DHT22;6214;48.012;7.862;2023-07-31T06:48:03;19.60;99.90
12303;DHT22;6214;48.012;7.862;2023-07-31T06:50:31;19.60;99.90
12303;DHT22;6214;48.012;7.862;2023-07-31T06:52:58;19.50;99.90
12303;DHT22;6214;48.012;7.862;2023-07-31T06:55:26;19.50;99.90
12303;DHT22;6214;48.012;7.862;2023-07-31T06:57:54;19.50;99.90
12303;DHT22;6214;48.012;7.862;2023-07-31T07:00:22;19.60;99.90
12303;DHT22;6214;48.012;7.862;2023-07-31T07:02:50;19.70;99.90
12303;DHT22;6214;48.012;7.862;2023-07-31T07:05:17;20.00;99.90
12303;DHT22;6214;48.012;7.862;2023-07-31T07:07:45;20.20;99.90
12303;DHT22;6214;48.012;7.862;2023-07-31T07:10:12;20.30;99.90
12303;DHT22;6214;48.012;7.862;2023-07-31T07:12:39;20.20;99.90
12303;DHT22;6214;48.012;7.862;2023-07-31T07:15:06;20.10;99.90
12303;DHT22;6214;48.012;7.862;2023-07-31T07:17:33;20.10;99.90
12303;DHT22;6214;48.012;7.862;2023-07-31T07:20:01;20.30;99.90
12303;DHT22;6214;48.012;7.862;2023-07-31T07:22:28;20.50;99.90
12303;DHT22;6214;48.012;7.862;2023-07-31T07:24:56;21.00;99.90
12303;DHT22;6214;48.012;7.862;2023-07-31T07:27:23;21.70;99.90
12303;DHT22;6214;48.012;7.862;2023-07-31T07:29:51;22.40;99.90
12303;DHT22;6214;48.012;7.862;2023-07-31T07:32:21;23.10;99.90
12303;DHT22;6214;48.012;7.862;2023-07-31T07:34:49;23.50;99.90
12303;DHT22;6214;48.012;7.862;2023-07-31T07:37:16;23.60;99.90
12303;DHT22;6214;48.012;7.862;2023-07-31T07:39:43;23.70;99.90
12303;DHT22;6214;48.012;7.862;2023-07-31T07:42:10;23.80;99.90
12303;DHT22;6214;48.012;7.862;2023-07-31T07:44:37;24.60;99.90
12303;DHT22;6214;48.012;7.862;2023-07-31T07:47:05;24.90;99.90
12303;DHT22;6214;48.012;7.862;2023-07-31T07:49:35;25.20;99.90
12303;DHT22;6214;48.012;7.862;2023-07-31T07:52:03;25.30;99.90
12303;DHT22;6214;48.012;7.862;2023-07-31T07:54:30;24.90;99.90
12303;DHT22;6214;48.012;7.862;2023-07-31T07:56:59;24.60;99.90
12303;DHT22;6214;48.012;7.862;2023-07-31T07:59:26;24.20;99.90
12303;DHT22;6214;48.012;7.862;2023-07-31T08:01:53;23.60;99.90
12303;DHT22;6214;48.012;7.862;2023-07-31T08:04:20;23.00;99.90
12303;DHT22;6214;48.012;7.862;2023-07-31T08:06:47;22.90;99.90
12303;DHT22;6214;48.012;7.862;2023-07-31T08:09:14;22.70;99.90
12303;DHT22;6214;48.012;7.862;2023-07-31T08:11:41;22.30;99.90
12303;DHT22;6214;48.012;7.862;2023-07-31T08:14:08;22.10;99.90
12303;DHT22;6214;48.012;7.862;2023-07-31T08:16:35;21.90;99.90
12303;DHT22;6214;48.012;7.862;2023-07-31T08:19:02;22.00;99.90
12303;DHT22;6214;48.012;7.862;2023-07-31T08:21:29;22.10;99.90
12303;DHT22;6214;48.012;7.862;2023-07-31T08:23:57;22.20;99.90
12303;DHT22;6214;48.012;7.862;2023-07-31T08:26:24;22.70;99.90
12303;DHT22;6214;48.012;7.862;2023-07-31T08:28:51;22.90;99.90
12303;DHT22;6214;48.012;7.862;2023-07-31T08:31:19;23.20;99.90
12303;DHT22;6214;48.012;7.862;2023-07-31T08:33:46;23.50;99.90
12303;DHT22;6214;48.012;7.862;2023-07-31T08:36:13;23.80;99.90
12303;DHT22;6214;48.012;7.862;2023-07-31T08:38:40;23.70;99.90
12303;DHT22;6214;48.012;7.862;2023-07-31T08:41:07;23.70;99.90
12303;DHT22;6214;48.012;7.862;2023-07-31T08:43:34;23.50;99.90
12303;DHT22;6214;48.012;7.862;2023-07-31T08:46:02;23.30;99.90
12303;DHT22;6214;48.012;7.862;2023-07-31T08:48:31;23.40;99.90
12303;DHT22;6214;48.012;7.862;2023-07-31T08:50:59;23.60;99.90
12303;DHT22;6214;48.012;7.862;2023-07-31T08:53:26;23.80;99.90
12303;DHT22;6214;48.012;7.862;2023-07-31T08:55:53;24.00;99.90
12303;DHT22;6214;48.012;7.862;2023-07-31T08:58:21;24.20;99.90
12303;DHT22;6214;48.012;7.862;2023-07-31T09:00:51;24.30;99.90
12303;DHT22;6214;48.012;7.862;2023-07-31T09:03:22;24.40;99.90
12303;DHT22;6214;48.012;7.862;2023-07-31T09:05:50;24.60;99.90
12303;DHT22;6214;48.012;7.862;2023-07-31T09:08:20;24.80;99.90
12303;DHT22;6214;48.012;7.862;2023-07-31T09:10:48;25.30;99.90
12303;DHT22;6214;48.012;7.862;2023-07-31T09:13:16;24.90;99.90
12303;DHT22;6214;48.012;7.862;2023-07-31T09:15:45;24.40;99.90
12303;DHT22;6214;48.012;7.862;2023-07-31T09:18:12;24.20;99.90
12303;DHT22;6214;48.012;7.862;2023-07-31T09:20:41;24.30;99.90
12303;DHT22;6214;48.012;7.862;2023-07-31T09:23:10;24.60;99.90
12303;DHT22;6214;48.012;7.862;2023-07-31T09:25:39;25.00;99.90
12303;DHT22;6214;48.012;7.862;2023-07-31T09:28:08;25.50;99.90
12303;DHT22;6214;48.012;7.862;2023-07-31T09:30:49;25.50;99.90
12303;DHT22;6214;48.012;7.862;2023-07-31T09:33:18;25.60;99.90
12303;DHT22;6214;48.012;7.862;2023-07-31T09:35:45;25.60;99.90
12303;DHT22;6214;48.012;7.862;2023-07-31T09:38:15;25.40;99.90
12303;DHT22;6214;48.012;7.862;2023-07-31T09:40:44;25.20;99.90
12303;DHT22;6214;48.012;7.862;2023-07-31T09:43:13;25.30;99.90
12303;DHT22;6214;48.012;7.862;2023-07-31T09:45:42;25.20;99.90
12303;DHT22;6214;48.012;7.862;2023-07-31T09:48:13;25.30;99.90
12303;DHT22;6214;48.012;7.862;2023-07-31T09:50:47;25.30;99.90
12303;DHT22;6214;48.012;7.862;2023-07-31T09:53:16;25.40;99.90
12303;DHT22;6214;48.012;7.862;2023-07-31T09:55:44;25.30;99.90
12303;DHT22;6214;48.012;7.862;2023-07-31T09:58:12;25.30;99.90
12303;DHT22;6214;48.012;7.862;2023-07-31T10:00:40;25.30;99.90
12303;DHT22;6214;48.012;7.862;2023-07-31T10:03:09;25.10;99.90
12303;DHT22;6214;48.012;7.862;2023-07-31T10:05:43;25.20;99.90
12303;DHT22;6214;48.012;7.862;2023-07-31T10:08:14;25.20;99.90
12303;DHT22;6214;48.012;7.862;2023-07-31T10:10:43;25.00;99.90
12303;DHT22;6214;48.012;7.862;2023-07-31T10:13:11;25.10;99.90
12303;DHT22;6214;48.012;7.862;2023-07-31T10:15:38;25.00;99.90
12303;DHT22;6214;48.012;7.862;2023-07-31T10:18:08;24.90;99.90
12303;DHT22;6214;48.012;7.862;2023-07-31T10:20:36;25.00;99.90
12303;DHT22;6214;48.012;7.862;2023-07-31T10:23:03;24.90;99.90
12303;DHT22;6214;48.012;7.862;2023-07-31T10:25:32;24.80;99.90
12303;DHT22;6214;48.012;7.862;2023-07-31T10:27:59;24.80;99.90
12303;DHT22;6214;48.012;7.862;2023-07-31T10:30:29;24.90;99.90
12303;DHT22;6214;48.012;7.862;2023-07-31T10:32:57;24.80;99.90
12303;DHT22;6214;48.012;7.862;2023-07-31T10:35:25;24.70;99.90
12303;DHT22;6214;48.012;7.862;2023-07-31T10:37:52;24.80;99.90
12303;DHT22;6214;48.012;7.862;2023-07-31T10:40:24;25.00;99.90
12303;DHT22;6214;48.012;7.862;2023-07-31T10:42:56;24.90;99.90
12303;DHT22;6214;48.012;7.862;2023-07-31T10:45:38;24.50;99.90
12303;DHT22;6214;48.012;7.862;2023-07-31T10:48:06;24.00;99.90
12303;DHT22;6214;48.012;7.862;2023-07-31T10:50:37;24.00;99.90
12303;DHT22;6214;48.012;7.862;2023-07-31T10:53:05;24.00;99.90
12303;DHT22;6214;48.012;7.862;2023-07-31T10:55:40;24.00;99.90
12303;DHT22;6214;48.012;7.862;2023-07-31T10:58:09;24.10;99.90
12303;DHT22;6214;48.012;7.862;2023-07-31T11:00:43;23.90;99.90
12303;DHT22;6214;48.012;7.862;2023-07-31T11:03:13;24.10;99.90
12303;DHT22;6214;48.012;7.862;2023-07-31T11:08:28;24.10;99.90
12303;DHT22;6214;48.012;7.862;2023-07-31T11:13:29;23.90;99.90
12303;DHT22;6214;48.012;7.862;2023-07-31T11:15:56;23.80;99.90
12303;DHT22;6214;48.012;7.862;2023-07-31T11:18:24;23.80;99.90
12303;DHT22;6214;48.012;7.862;2023-07-31T11:20:51;23.90;99.90
12303;DHT22;6214;48.012;7.862;2023-07-31T11:23:19;23.80;99.90
12303;DHT22;6214;48.012;7.862;2023-07-31T11:25:47;23.80;99.90
12303;DHT22;6214;48.012;7.862;2023-07-31T11:28:15;23.80;99.90
12303;DHT22;6214;48.012;7.862;2023-07-31T11:30:44;24.00;99.90
12303;DHT22;6214;48.012;7.862;2023-07-31T11:33:12;24.10;99.90
12303;DHT22;6214;48.012;7.862;2023-07-31T11:35:47;24.60;99.90
12303;DHT22;6214;48.012;7.862;2023-07-31T11:38:27;24.80;99.90
12303;DHT22;6214;48.012;7.862;2023-07-31T11:40:56;24.80;99.90
12303;DHT22;6214;48.012;7.862;2023-07-31T11:43:24;24.90;99.90
12303;DHT22;6214;48.012;7.862;2023-07-31T11:45:52;24.90;99.90
12303;DHT22;6214;48.012;7.862;2023-07-31T11:48:46;24.80;99.90
12303;DHT22;6214;48.012;7.862;2023-07-31T11:51:13;24.70;99.90
12303;DHT22;6214;48.012;7.862;2023-07-31T11:53:47;24.60;99.90
12303;DHT22;6214;48.012;7.862;2023-07-31T11:56:18;24.50;99.90
12303;DHT22;6214;48.012;7.862;2023-07-31T11:58:47;24.40;99.90
12303;DHT22;6214;48.012;7.862;2023-07-31T12:01:16;24.40;99.90
12303;DHT22;6214;48.012;7.862;2023-07-31T12:03:46;24.60;99.90
12303;DHT22;6214;48.012;7.862;2023-07-31T12:06:14;24.90;99.90
12303;DHT22;6214;48.012;7.862;2023-07-31T12:08:41;25.20;99.90
12303;DHT22;6214;48.012;7.862;2023-07-31T12:11:09;25.50;99.90
12303;DHT22;6214;48.012;7.862;2023-07-31T12:13:40;25.30;99.90
12303;DHT22;6214;48.012;7.862;2023-07-31T12:16:07;25.30;99.90
12303;DHT22;6214;48.012;7.862;2023-07-31T12:18:37;25.30;99.90
12303;DHT22;6214;48.012;7.862;2023-07-31T12:21:07;25.40;99.90
12303;DHT22;6214;48.012;7.862;2023-07-31T12:23:36;25.30;99.90
12303;DHT22;6214;48.012;7.862;2023-07-31T12:28:39;25.30;99.90
12303;DHT22;6214;48.012;7.862;2023-07-31T12:31:09;25.40;99.90
12303;DHT22;6214;48.012;7.862;2023-07-31T12:33:38;25.30;99.90
12303;DHT22;6214;48.012;7.862;2023-07-31T12:36:14;25.30;99.90
12303;DHT22;6214;48.012;7.862;2023-07-31T12:38:42;25.30;99.90
12303;DHT22;6214;48.012;7.862;2023-07-31T12:41:09;25.30;99.90
12303;DHT22;6214;48.012;7.862;2023-07-31T12:43:38;25.00;99.90
12303;DHT22;6214;48.012;7.862;2023-07-31T12:46:05;25.10;99.90
12303;DHT22;6214;48.012;7.862;2023-07-31T12:48:35;25.20;99.90
12303;DHT22;6214;48.012;7.862;2023-07-31T12:51:03;25.30;99.90
12303;DHT22;6214;48.012;7.862;2023-07-31T12:53:30;25.30;99.90
12303;DHT22;6214;48.012;7.862;2023-07-31T12:55:57;25.60;99.90
12303;DHT22;6214;48.012;7.862;2023-07-31T12:58:24;25.60;99.90
12303;DHT22;6214;48.012;7.862;2023-07-31T13:00:52;25.90;99.90
12303;DHT22;6214;48.012;7.862;2023-07-31T13:03:19;26.00;99.90
12303;DHT22;6214;48.012;7.862;2023-07-31T13:05:46;25.90;99.90
12303;DHT22;6214;48.012;7.862;2023-07-31T13:08:13;25.80;99.90
12303;DHT22;6214;48.012;7.862;2023-07-31T13:10:42;25.60;99.90
12303;DHT22;6214;48.012;7.862;2023-07-31T13:13:10;25.50;99.90
12303;DHT22;6214;48.012;7.862;2023-07-31T13:15:37;25.50;99.90
12303;DHT22;6214;48.012;7.862;2023-07-31T13:18:04;25.50;99.90
12303;DHT22;6214;48.012;7.862;2023-07-31T13:20:31;25.40;99.90
12303;DHT22;6214;48.012;7.862;2023-07-31T13:22:58;25.50;99.90
12303;DHT22;6214;48.012;7.862;2023-07-31T13:25:25;25.40;99.90
12303;DHT22;6214;48.012;7.862;2023-07-31T13:27:52;25.40;99.90
12303;DHT22;6214;48.012;7.862;2023-07-31T13:30:19;25.20;99.90
12303;DHT22;6214;48.012;7.862;2023-07-31T13:32:46;25.10;99.90
12303;DHT22;6214;48.012;7.862;2023-07-31T13:35:13;25.30;99.90
12303;DHT22;6214;48.012;7.862;2023-07-31T13:37:40;25.30;99.90
12303;DHT22;6214;48.012;7.862;2023-07-31T13:40:07;25.40;99.90
12303;DHT22;6214;48.012;7.862;2023-07-31T13:42:35;25.40;99.90
12303;DHT22;6214;48.012;7.862;2023-07-31T13:45:02;25.50;99.90
12303;DHT22;6214;48.012;7.862;2023-07-31T13:47:33;25.50;99.90
12303;DHT22;6214;48.012;7.862;2023-07-31T13:50:01;25.50;99.90
12303;DHT22;6214;48.012;7.862;2023-07-31T13:52:29;25.50;99.90
12303;DHT22;6214;48.012;7.862;2023-07-31T13:54:56;25.70;99.90
12303;DHT22;6214;48.012;7.862;2023-07-31T13:57:23;25.80;99.90
12303;DHT22;6214;48.012;7.862;2023-07-31T13:59:50;25.80;99.90
12303;DHT22;6214;48.012;7.862;2023-07-31T14:02:17;25.70;99.90
12303;DHT22;6214;48.012;7.862;2023-07-31T14:04:44;25.80;99.90
12303;DHT22;6214;48.012;7.862;2023-07-31T14:07:11;25.80;99.90
12303;DHT22;6214;48.012;7.862;2023-07-31T14:09:38;25.90;99.90
12303;DHT22;6214;48.012;7.862;2023-07-31T14:12:06;25.90;99.90
12303;DHT22;6214;48.012;7.862;2023-07-31T14:14:33;26.10;99.90
12303;DHT22;6214;48.012;7.862;2023-07-31T14:17:01;26.00;99.90
12303;DHT22;6214;48.012;7.862;2023-07-31T14:19:29;26.10;99.90
12303;DHT22;6214;48.012;7.862;2023-07-31T14:21:58;26.10;99.90
12303;DHT22;6214;48.012;7.862;2023-07-31T14:24:37;26.10;99.90
12303;DHT22;6214;48.012;7.862;2023-07-31T14:27:04;26.00;99.90
12303;DHT22;6214;48.012;7.862;2023-07-31T14:29:31;25.90;99.90
12303;DHT22;6214;48.012;7.862;2023-07-31T14:31:59;25.90;99.90
12303;DHT22;6214;48.012;7.862;2023-07-31T14:34:27;25.90;99.90
12303;DHT22;6214;48.012;7.862;2023-07-31T14:36:54;25.90;99.90
12303;DHT22;6214;48.012;7.862;2023-07-31T14:39:21;25.90;99.90
12303;DHT22;6214;48.012;7.862;2023-07-31T14:41:48;26.00;99.90
12303;DHT22;6214;48.012;7.862;2023-07-31T14:44:15;26.20;99.90
12303;DHT22;6214;48.012;7.862;2023-07-31T14:46:42;26.10;99.90
12303;DHT22;6214;48.012;7.862;2023-07-31T14:49:10;26.00;99.90
12303;DHT22;6214;48.012;7.862;2023-07-31T14:51:37;25.90;99.90
12303;DHT22;6214;48.012;7.862;2023-07-31T14:54:04;25.90;99.90
12303;DHT22;6214;48.012;7.862;2023-07-31T14:56:31;25.90;99.90
12303;DHT22;6214;48.012;7.862;2023-07-31T14:58:58;26.00;99.90
12303;DHT22;6214;48.012;7.862;2023-07-31T15:01:25;25.90;99.90
12303;DHT22;6214;48.012;7.862;2023-07-31T15:03:52;25.90;99.90
12303;DHT22;6214;48.012;7.862;2023-07-31T15:06:19;25.80;99.90
12303;DHT22;6214;48.012;7.862;2023-07-31T15:08:46;25.70;99.90
12303;DHT22;6214;48.012;7.862;2023-07-31T15:11:13;25.60;99.90
12303;DHT22;6214;48.012;7.862;2023-07-31T15:13:42;25.60;99.90
12303;DHT22;6214;48.012;7.862;2023-07-31T15:16:10;25.60;99.90
12303;DHT22;6214;48.012;7.862;2023-07-31T15:18:37;25.60;99.90
12303;DHT22;6214;48.012;7.862;2023-07-31T15:21:04;25.60;99.90
12303;DHT22;6214;48.012;7.862;2023-07-31T15:23:33;25.60;99.90
12303;DHT22;6214;48.012;7.862;2023-07-31T15:26:00;25.50;99.90
12303;DHT22;6214;48.012;7.862;2023-07-31T15:28:28;25.60;99.90
12303;DHT22;6214;48.012;7.862;2023-07-31T15:30:55;25.50;99.90
12303;DHT22;6214;48.012;7.862;2023-07-31T15:33:22;25.60;99.90
12303;DHT22;6214;48.012;7.862;2023-07-31T15:35:49;25.60;99.90
12303;DHT22;6214;48.012;7.862;2023-07-31T15:38:16;25.60;99.90
12303;DHT22;6214;48.012;7.862;2023-07-31T15:40:43;25.60;99.90
12303;DHT22;6214;48.012;7.862;2023-07-31T15:43:10;25.60;99.90
12303;DHT22;6214;48.012;7.862;2023-07-31T15:45:37;25.60;99.90
12303;DHT22;6214;48.012;7.862;2023-07-31T15:48:04;25.60;99.90
12303;DHT22;6214;48.012;7.862;2023-07-31T15:50:32;25.60;99.90
12303;DHT22;6214;48.012;7.862;2023-07-31T15:52:59;25.50;99.90
12303;DHT22;6214;48.012;7.862;2023-07-31T15:55:26;25.40;99.90
12303;DHT22;6214;48.012;7.862;2023-07-31T15:57:53;25.30;99.90
12303;DHT22;6214;48.012;7.862;2023-07-31T16:00:20;25.30;99.90